createdAt,value
2022-10-06T00:02:24.000Z,6.57
2022-10-06T00:07:25.000Z,7.28
2022-10-06T00:12:24.000Z,5.61
2022-10-06T00:17:25.000Z,4.3
2022-10-06T00:22:24.000Z,3.66
2022-10-06T00:27:25.000Z,3.23
2022-10-06T00:32:24.000Z,3.19
2022-10-06T00:37:25.000Z,2.89
2022-10-06T00:42:24.000Z,3.07
2022-10-06T00:47:24.000Z,3.17
2022-10-06T00:52:24.000Z,2.85
2022-10-06T00:57:24.000Z,2.92
2022-10-06T01:02:24.000Z,2.98
2022-10-06T01:07:25.000Z,2.8
2022-10-06T01:12:24.000Z,2.65
2022-10-06T01:17:24.000Z,2.95
2022-10-06T01:22:25.000Z,3.35
2022-10-06T01:27:24.000Z,3.36
2022-10-06T01:32:24.000Z,3.09
2022-10-06T01:37:25.000Z,3.07
2022-10-06T01:42:25.000Z,3.07
2022-10-06T01:47:24.000Z,3.01
2022-10-06T01:52:25.000Z,2.91
2022-10-06T01:57:24.000Z,2.94
2022-10-06T02:02:25.000Z,2.86
2022-10-06T02:07:24.000Z,2.9
2022-10-06T02:12:25.000Z,2.97
2022-10-06T02:17:25.000Z,2.94
2022-10-06T02:22:24.000Z,3.2
2022-10-06T02:27:25.000Z,3.57
2022-10-06T02:32:25.000Z,3.46
2022-10-06T02:37:24.000Z,3.34
2022-10-06T02:42:24.000Z,3.47
2022-10-06T02:47:25.000Z,3.32
2022-10-06T02:52:24.000Z,3.33
2022-10-06T02:57:25.000Z,3.21
2022-10-06T03:02:24.000Z,3.42
2022-10-06T03:07:25.000Z,3.49
2022-10-06T03:17:25.000Z,3.54
2022-10-06T03:22:24.000Z,3.54
2022-10-06T03:27:24.000Z,3.8
2022-10-06T03:32:25.000Z,4.11
2022-10-06T03:37:24.000Z,4.04
2022-10-06T03:42:25.000Z,3.93
2022-10-06T03:47:24.000Z,4.18
2022-10-06T03:52:24.000Z,4.27
2022-10-06T03:57:24.000Z,4.24
2022-10-06T04:02:25.000Z,4.07
2022-10-06T04:07:24.000Z,4.06
2022-10-06T04:12:24.000Z,4.22
2022-10-06T04:17:24.000Z,4.47
2022-10-06T04:22:25.000Z,4.8
2022-10-06T04:27:24.000Z,5.76
2022-10-06T04:32:25.000Z,6.04
2022-10-06T04:37:25.000Z,6.07
2022-10-06T04:42:24.000Z,5.86
2022-10-06T04:47:25.000Z,5.68
2022-10-06T04:52:24.000Z,5.45
2022-10-06T04:57:24.000Z,5.44
2022-10-06T05:02:25.000Z,5.39
2022-10-06T05:07:24.000Z,5.56
2022-10-06T05:12:24.000Z,5.75
2022-10-06T05:17:25.000Z,6.31
2022-10-06T05:22:25.000Z,5.65
2022-10-06T05:27:24.000Z,5.3
2022-10-06T05:32:24.000Z,5.5
2022-10-06T05:37:24.000Z,5.14
2022-10-06T05:42:24.000Z,5.34
2022-10-06T05:47:24.000Z,5.56
2022-10-06T05:52:24.000Z,5.63
2022-10-06T05:57:25.000Z,6.06
2022-10-06T06:02:24.000Z,6.28
2022-10-06T06:07:25.000Z,7.19
2022-10-06T06:12:25.000Z,5.28
2022-10-06T06:17:24.000Z,5.38
2022-10-06T06:22:24.000Z,5.76
2022-10-06T06:27:24.000Z,5.71
2022-10-06T06:32:25.000Z,5.96
2022-10-06T06:37:24.000Z,5.94
2022-10-06T06:42:24.000Z,6
2022-10-06T06:47:25.000Z,6.19
2022-10-06T06:52:24.000Z,6.77
2022-10-06T06:57:24.000Z,6.63
2022-10-06T07:02:25.000Z,7.54
2022-10-06T07:07:24.000Z,6.96
2022-10-06T07:12:25.000Z,7
2022-10-06T07:17:24.000Z,7.01
2022-10-06T07:22:24.000Z,6.74
2022-10-06T07:27:24.000Z,6.66
2022-10-06T07:32:24.000Z,6.11
2022-10-06T07:37:24.000Z,6.03
2022-10-06T07:42:24.000Z,6.28
2022-10-06T07:47:25.000Z,6.73
2022-10-06T07:52:24.000Z,7.02
2022-10-06T07:57:24.000Z,7.02
2022-10-06T08:02:24.000Z,6.75
2022-10-06T08:07:25.000Z,6.73
2022-10-06T08:17:24.000Z,7.13
2022-10-06T08:22:24.000Z,8.69
2022-10-06T08:27:24.000Z,8.7
2022-10-06T08:32:24.000Z,8.75
2022-10-06T08:37:24.000Z,9.7
2022-10-06T08:42:25.000Z,9.23
2022-10-06T08:47:24.000Z,8.69
2022-10-06T08:52:24.000Z,8.88
2022-10-06T08:57:24.000Z,8.23
2022-10-06T09:02:24.000Z,8.5
2022-10-06T09:07:25.000Z,7.97
2022-10-06T09:12:24.000Z,8.03
2022-10-06T09:17:25.000Z,7.67
2022-10-06T09:22:24.000Z,7.61
2022-10-06T09:27:24.000Z,7.65
2022-10-06T09:32:24.000Z,7.57
2022-10-06T09:37:24.000Z,7.09
2022-10-06T09:42:24.000Z,6.99
2022-10-06T09:47:25.000Z,7.94
2022-10-06T09:52:24.000Z,8.48
2022-10-06T09:57:24.000Z,8.46
2022-10-06T10:02:25.000Z,7.68
2022-10-06T10:07:24.000Z,7.68
2022-10-06T10:12:24.000Z,6.74
2022-10-06T10:17:24.000Z,6.39
2022-10-06T10:22:24.000Z,6.02
2022-10-06T10:27:25.000Z,6.18
2022-10-06T10:32:24.000Z,6.08
2022-10-06T10:37:25.000Z,5.98
2022-10-06T10:42:24.000Z,5.5
2022-10-06T10:47:25.000Z,5.55
2022-10-06T10:52:25.000Z,5.69
2022-10-06T10:57:24.000Z,6.16
2022-10-06T11:02:25.000Z,6.01
2022-10-06T11:07:24.000Z,5.78
2022-10-06T11:12:24.000Z,5.69
2022-10-06T11:17:24.000Z,5.76
2022-10-06T11:22:25.000Z,5.84
2022-10-06T11:27:24.000Z,5.59
2022-10-06T11:32:24.000Z,5.98
2022-10-06T11:37:24.000Z,6.54
2022-10-06T11:42:24.000Z,7.16
2022-10-06T11:47:24.000Z,7.57
2022-10-06T11:52:25.000Z,7.64
2022-10-06T11:57:24.000Z,7.76
2022-10-06T12:02:25.000Z,7.89
2022-10-06T12:07:24.000Z,7.05
2022-10-06T12:12:25.000Z,7.11
2022-10-06T12:17:25.000Z,7.03
2022-10-06T12:22:25.000Z,6.73
2022-10-06T12:27:24.000Z,6.31
2022-10-06T12:32:24.000Z,6.17
2022-10-06T12:37:25.000Z,6.1
2022-10-06T12:42:25.000Z,6.49
2022-10-06T12:47:24.000Z,6.82
2022-10-06T12:52:24.000Z,6.83
2022-10-06T12:57:25.000Z,7.25
2022-10-06T13:02:24.000Z,6.7
2022-10-06T13:12:24.000Z,6.43
2022-10-06T13:17:24.000Z,6.59
2022-10-06T13:22:24.000Z,6.6
2022-10-06T13:27:25.000Z,6.93
2022-10-06T13:37:24.000Z,7.24
2022-10-06T13:42:25.000Z,7.1
2022-10-06T13:52:24.000Z,7.17
2022-10-06T13:57:25.000Z,7.06
2022-10-06T14:02:24.000Z,7.02
2022-10-06T14:07:24.000Z,10.31
2022-10-06T14:12:24.000Z,7.64
2022-10-06T14:17:25.000Z,6.85
2022-10-06T14:22:25.000Z,7.37
2022-10-06T14:27:24.000Z,7.64
2022-10-06T14:32:25.000Z,7.95
2022-10-06T14:37:24.000Z,8.06
2022-10-06T14:42:24.000Z,8.17
2022-10-06T14:47:24.000Z,7.45
2022-10-06T14:52:24.000Z,6.98
2022-10-06T14:57:25.000Z,6.67
2022-10-06T15:02:24.000Z,6.74
2022-10-06T15:07:25.000Z,6.94
2022-10-06T15:12:24.000Z,6.67
2022-10-06T15:17:24.000Z,6.76
2022-10-06T15:22:24.000Z,7.03
2022-10-06T15:27:25.000Z,6.79
2022-10-06T15:32:25.000Z,6.74
2022-10-06T15:37:25.000Z,7.04
2022-10-06T15:42:24.000Z,7.44
2022-10-06T15:47:24.000Z,7.38
2022-10-06T15:52:24.000Z,6.83
2022-10-06T15:57:25.000Z,6.66
2022-10-06T16:02:24.000Z,6.83
2022-10-06T16:07:24.000Z,7.17
2022-10-06T16:12:24.000Z,7.34
2022-10-06T16:17:24.000Z,7.31
2022-10-06T16:22:24.000Z,7.52
2022-10-06T16:27:25.000Z,7.56
2022-10-06T16:32:24.000Z,7.91
2022-10-06T16:37:25.000Z,8.18
2022-10-06T16:42:24.000Z,8.05
2022-10-06T16:47:24.000Z,8.4
2022-10-06T16:52:25.000Z,8.51
2022-10-06T16:57:24.000Z,8.65
2022-10-06T17:02:24.000Z,8.51
2022-10-06T17:07:24.000Z,8.31
2022-10-06T17:12:24.000Z,8.65
2022-10-06T17:17:25.000Z,8.9
2022-10-06T17:22:25.000Z,9.12
2022-10-06T17:27:24.000Z,9.01
2022-10-06T17:32:24.000Z,9.15
2022-10-06T17:37:24.000Z,9.09
2022-10-06T17:42:24.000Z,9.14
2022-10-06T17:47:25.000Z,9.19
2022-10-06T17:52:24.000Z,9.01
2022-10-06T17:57:24.000Z,8.83
2022-10-06T18:02:24.000Z,8.94
2022-10-06T18:07:24.000Z,8.84
2022-10-06T18:12:24.000Z,8.84
2022-10-06T18:17:25.000Z,8.82
2022-10-06T18:22:24.000Z,8.39
2022-10-06T18:27:25.000Z,8.55
2022-10-06T18:32:25.000Z,8.68
2022-10-06T18:42:25.000Z,8.63
2022-10-06T18:47:24.000Z,8.46
2022-10-06T18:52:24.000Z,8.71
2022-10-06T18:57:24.000Z,8.56
2022-10-06T19:02:24.000Z,8.57
2022-10-06T19:07:24.000Z,8.91
2022-10-06T19:12:25.000Z,8.75
2022-10-06T19:17:25.000Z,8.93
2022-10-06T19:22:24.000Z,8.86
2022-10-06T19:27:24.000Z,9.19
2022-10-06T19:32:25.000Z,9.39
2022-10-06T19:37:24.000Z,9.38
2022-10-06T19:42:24.000Z,9.56
2022-10-06T19:47:24.000Z,10
2022-10-06T19:52:24.000Z,10.59
2022-10-06T19:57:25.000Z,10.95
2022-10-06T20:02:25.000Z,10.88
2022-10-06T20:07:25.000Z,11.14
2022-10-06T20:12:24.000Z,11.8
2022-10-06T20:17:25.000Z,11.73
2022-10-06T20:22:24.000Z,11.13
2022-10-06T20:27:25.000Z,10.82
2022-10-06T20:32:25.000Z,10.36
2022-10-06T20:37:24.000Z,9.82
2022-10-06T20:42:25.000Z,9.8
2022-10-06T20:47:24.000Z,10.01
2022-10-06T20:52:24.000Z,9.89
2022-10-06T20:57:25.000Z,9.85
2022-10-06T21:02:24.000Z,9.66
2022-10-06T21:07:25.000Z,9.46
2022-10-06T21:12:25.000Z,9.4
2022-10-06T21:17:24.000Z,9.5
2022-10-06T21:27:24.000Z,10.08
2022-10-06T21:32:25.000Z,10.11
2022-10-06T21:37:24.000Z,10.01
2022-10-06T21:42:25.000Z,9.7
2022-10-06T21:47:24.000Z,9.51
2022-10-06T21:52:24.000Z,9.64
2022-10-06T21:57:25.000Z,9.7
2022-10-06T22:02:24.000Z,9.89
2022-10-06T22:07:24.000Z,9.63
2022-10-06T22:12:25.000Z,9.45
2022-10-06T22:17:24.000Z,9.22
2022-10-06T22:22:24.000Z,9.03
2022-10-06T22:27:24.000Z,8.99
2022-10-06T22:32:25.000Z,8.68
2022-10-06T22:37:24.000Z,8.68
2022-10-06T22:42:24.000Z,8.38
2022-10-06T22:47:24.000Z,8.33
2022-10-06T22:52:25.000Z,8.43
2022-10-06T22:57:24.000Z,8.1
2022-10-06T23:02:24.000Z,7.78
2022-10-06T23:07:25.000Z,7.24
2022-10-06T23:12:25.000Z,7.12
2022-10-06T23:17:25.000Z,7.29
2022-10-06T23:22:25.000Z,7.33
2022-10-06T23:27:24.000Z,7.5
2022-10-06T23:32:24.000Z,7.27
2022-10-06T23:37:24.000Z,7.07
2022-10-06T23:42:24.000Z,6.88
2022-10-06T23:47:25.000Z,6.76
2022-10-06T23:52:24.000Z,6.81
2022-10-06T23:57:24.000Z,6.47
